KOKC/OKC METAR and TAF weather

Enter ICAO airport designator
Station Type Date Time Source
KOKC METAR 2019/02/22 23:52 UTC NOAA

KOKC 222352Z 14004KT 4SM -RA BR BKN006 OVC011 07/07 A2991 RMK AO2 SLP132 P0003 60005 T00720067 10078 20067 57010 $


Station Type Date Time Source
KOKC Decoded METAR 2019/02/22 23:52 UTC NOAA

WILL ROGERS WORLD AIRPORT, OK, United States (KOKC) 35-23N 97-36W 390M
Feb 22, 2019 - 06:52 PM EST / 2019.02.22 2352 UTC
Wind: from the SE (140 degrees) at 5 MPH (4 KT):0
Visibility: 4 mile(s):0
Sky conditions: overcast
Weather: light rain; mist
Precipitation last hour: 0.03 inches
Temperature: 45.0 F (7.2 C)
Dew Point: 44.1 F (6.7 C)
Relative Humidity: 96%
Pressure (altimeter): 29.91 in. Hg (1012 hPa)
Pressure tendency: 0.03 inches (1.0 hPa) lower than three hours ago
ob: KOKC 222352Z 14004KT 4SM -RA BR BKN006 OVC011 07/07 A2991 RMK AO2 SLP132 P0003 60005 T00720067 10078 20067 57010
cycle: 0

Station Type Date Time Source
KOKC TAF 2019/02/22 18:22 UTC NOAA

TAF KOKC 221720Z 2218/2318 08009KT 5SM -DZ BR OVC006
FM230000 13007KT 2SM -RA BR OVC002
FM230900 17014G24KT 4SM RA BR OVC003
FM231500 21030G40KT P6SM SKC


Example: see airport list